sensor_id;sensor_type;location;lat;lon;timestamp;temperature;humidity
13198;DHT22;6664;52.514;13.440;2023-05-27T00:01:29;10.40;17.40
13198;DHT22;6664;52.514;13.440;2023-05-27T00:04:15;10.40;17.70
13198;DHT22;6664;52.514;13.440;2023-05-27T00:07:01;10.40;17.70
13198;DHT22;6664;52.514;13.440;2023-05-27T00:09:49;10.20;17.70
13198;DHT22;6664;52.514;13.440;2023-05-27T00:12:37;10.20;18.10
13198;DHT22;6664;52.514;13.440;2023-05-27T00:15:23;10.30;18.30
13198;DHT22;6664;52.514;13.440;2023-05-27T00:18:08;10.20;18.30
13198;DHT22;6664;52.514;13.440;2023-05-27T00:20:54;10.20;18.70
13198;DHT22;6664;52.514;13.440;2023-05-27T00:23:44;10.20;18.80
13198;DHT22;6664;52.514;13.440;2023-05-27T00:26:32;10.10;18.80
13198;DHT22;6664;52.514;13.440;2023-05-27T00:29:18;10.10;19.20
13198;DHT22;6664;52.514;13.440;2023-05-27T00:32:04;10.10;19.40
13198;DHT22;6664;52.514;13.440;2023-05-27T00:34:52;10.00;19.40
13198;DHT22;6664;52.514;13.440;2023-05-27T00:37:38;10.00;19.70
13198;DHT22;6664;52.514;13.440;2023-05-27T00:40:26;10.00;19.70
13198;DHT22;6664;52.514;13.440;2023-05-27T00:43:14;10.00;20.00
13198;DHT22;6664;52.514;13.440;2023-05-27T00:45:59;9.90;20.90
13198;DHT22;6664;52.514;13.440;2023-05-27T00:48:47;9.90;20.90
13198;DHT22;6664;52.514;13.440;2023-05-27T00:51:33;9.90;21.20
13198;DHT22;6664;52.514;13.440;2023-05-27T00:54:19;9.80;21.40
13198;DHT22;6664;52.514;13.440;2023-05-27T00:57:05;9.80;21.30
13198;DHT22;6664;52.514;13.440;2023-05-27T00:59:52;9.80;21.70
13198;DHT22;6664;52.514;13.440;2023-05-27T01:02:38;9.70;21.60
13198;DHT22;6664;52.514;13.440;2023-05-27T01:05:26;9.70;21.90
13198;DHT22;6664;52.514;13.440;2023-05-27T01:08:56;9.70;22.30
13198;DHT22;6664;52.514;13.440;2023-05-27T01:14:57;9.60;22.30
13198;DHT22;6664;52.514;13.440;2023-05-27T01:17:44;9.60;22.40
13198;DHT22;6664;52.514;13.440;2023-05-27T01:20:34;9.60;22.40
13198;DHT22;6664;52.514;13.440;2023-05-27T01:23:27;9.50;22.40
13198;DHT22;6664;52.514;13.440;2023-05-27T01:26:13;9.50;22.60
13198;DHT22;6664;52.514;13.440;2023-05-27T01:28:58;9.50;22.90
13198;DHT22;6664;52.514;13.440;2023-05-27T01:32:15;9.50;23.10
13198;DHT22;6664;52.514;13.440;2023-05-27T01:38:10;9.40;23.60
13198;DHT22;6664;52.514;13.440;2023-05-27T01:40:58;9.40;23.70
13198;DHT22;6664;52.514;13.440;2023-05-27T01:43:45;9.40;23.80
13198;DHT22;6664;52.514;13.440;2023-05-27T01:46:31;9.30;23.60
13198;DHT22;6664;52.514;13.440;2023-05-27T01:49:19;9.40;23.80
13198;DHT22;6664;52.514;13.440;2023-05-27T01:52:05;9.40;24.00
13198;DHT22;6664;52.514;13.440;2023-05-27T01:54:54;9.40;24.10
13198;DHT22;6664;52.514;13.440;2023-05-27T01:57:40;9.40;23.90
13198;DHT22;6664;52.514;13.440;2023-05-27T02:00:28;9.30;24.00
13198;DHT22;6664;52.514;13.440;2023-05-27T02:03:15;9.30;24.20
13198;DHT22;6664;52.514;13.440;2023-05-27T02:06:01;9.30;24.40
13198;DHT22;6664;52.514;13.440;2023-05-27T02:08:47;9.30;24.50
13198;DHT22;6664;52.514;13.440;2023-05-27T02:11:32;9.20;24.80
13198;DHT22;6664;52.514;13.440;2023-05-27T02:14:18;9.20;24.90
13198;DHT22;6664;52.514;13.440;2023-05-27T02:17:04;9.20;25.00
13198;DHT22;6664;52.514;13.440;2023-05-27T02:19:51;9.20;25.00
13198;DHT22;6664;52.514;13.440;2023-05-27T02:22:38;9.10;25.20
13198;DHT22;6664;52.514;13.440;2023-05-27T02:25:29;9.10;25.60
13198;DHT22;6664;52.514;13.440;2023-05-27T02:28:15;9.00;25.70
13198;DHT22;6664;52.514;13.440;2023-05-27T02:31:00;8.90;26.10
13198;DHT22;6664;52.514;13.440;2023-05-27T02:33:46;8.90;26.30
13198;DHT22;6664;52.514;13.440;2023-05-27T02:36:31;8.90;26.70
13198;DHT22;6664;52.514;13.440;2023-05-27T02:39:17;8.90;26.40
13198;DHT22;6664;52.514;13.440;2023-05-27T02:42:02;8.90;26.70
13198;DHT22;6664;52.514;13.440;2023-05-27T02:44:48;8.90;26.90
13198;DHT22;6664;52.514;13.440;2023-05-27T02:47:34;8.80;27.00
13198;DHT22;6664;52.514;13.440;2023-05-27T02:50:20;8.80;27.50
13198;DHT22;6664;52.514;13.440;2023-05-27T02:53:06;8.80;27.50
13198;DHT22;6664;52.514;13.440;2023-05-27T02:55:52;8.70;27.70
13198;DHT22;6664;52.514;13.440;2023-05-27T02:58:38;8.70;27.90
13198;DHT22;6664;52.514;13.440;2023-05-27T03:01:24;8.70;28.10
13198;DHT22;6664;52.514;13.440;2023-05-27T03:04:10;8.60;28.30
13198;DHT22;6664;52.514;13.440;2023-05-27T03:06:56;8.60;28.50
13198;DHT22;6664;52.514;13.440;2023-05-27T03:09:43;8.60;28.80
13198;DHT22;6664;52.514;13.440;2023-05-27T03:12:29;8.70;28.80
13198;DHT22;6664;52.514;13.440;2023-05-27T03:15:14;8.70;28.90
13198;DHT22;6664;52.514;13.440;2023-05-27T03:18:00;8.70;28.90
13198;DHT22;6664;52.514;13.440;2023-05-27T03:20:48;8.70;29.00
13198;DHT22;6664;52.514;13.440;2023-05-27T03:23:35;8.70;29.40
13198;DHT22;6664;52.514;13.440;2023-05-27T03:26:21;8.70;29.40
13198;DHT22;6664;52.514;13.440;2023-05-27T03:29:07;8.70;29.40
13198;DHT22;6664;52.514;13.440;2023-05-27T03:31:53;8.70;29.40
13198;DHT22;6664;52.514;13.440;2023-05-27T03:34:39;8.70;29.60
13198;DHT22;6664;52.514;13.440;2023-05-27T03:37:25;8.80;29.50
13198;DHT22;6664;52.514;13.440;2023-05-27T03:40:14;8.80;29.60
13198;DHT22;6664;52.514;13.440;2023-05-27T03:42:59;8.90;30.10
13198;DHT22;6664;52.514;13.440;2023-05-27T03:45:45;9.00;29.40
13198;DHT22;6664;52.514;13.440;2023-05-27T03:48:31;8.90;29.20
13198;DHT22;6664;52.514;13.440;2023-05-27T03:51:17;9.00;29.10
13198;DHT22;6664;52.514;13.440;2023-05-27T03:54:05;9.00;29.10
13198;DHT22;6664;52.514;13.440;2023-05-27T03:56:50;9.00;29.10
13198;DHT22;6664;52.514;13.440;2023-05-27T03:59:37;9.00;29.20
13198;DHT22;6664;52.514;13.440;2023-05-27T04:02:24;9.00;29.20
13198;DHT22;6664;52.514;13.440;2023-05-27T04:05:10;9.00;29.20
13198;DHT22;6664;52.514;13.440;2023-05-27T04:07:56;9.00;29.30
13198;DHT22;6664;52.514;13.440;2023-05-27T04:10:42;9.10;29.20
13198;DHT22;6664;52.514;13.440;2023-05-27T04:13:27;9.10;29.10
13198;DHT22;6664;52.514;13.440;2023-05-27T04:16:15;9.10;29.10
13198;DHT22;6664;52.514;13.440;2023-05-27T04:19:01;9.10;29.20
13198;DHT22;6664;52.514;13.440;2023-05-27T04:21:46;9.20;29.30
13198;DHT22;6664;52.514;13.440;2023-05-27T04:24:33;9.20;29.30
13198;DHT22;6664;52.514;13.440;2023-05-27T04:27:19;9.20;29.10
13198;DHT22;6664;52.514;13.440;2023-05-27T04:30:06;9.30;29.10
13198;DHT22;6664;52.514;13.440;2023-05-27T04:32:54;9.30;29.00
13198;DHT22;6664;52.514;13.440;2023-05-27T04:35:40;9.30;28.90
13198;DHT22;6664;52.514;13.440;2023-05-27T04:38:29;9.40;28.80
13198;DHT22;6664;52.514;13.440;2023-05-27T04:41:16;9.50;28.70
13198;DHT22;6664;52.514;13.440;2023-05-27T04:44:02;9.50;28.60
13198;DHT22;6664;52.514;13.440;2023-05-27T04:46:47;9.50;28.50
13198;DHT22;6664;52.514;13.440;2023-05-27T04:49:33;9.50;28.40
13198;DHT22;6664;52.514;13.440;2023-05-27T04:52:20;9.50;28.50
13198;DHT22;6664;52.514;13.440;2023-05-27T04:55:09;9.60;28.40
13198;DHT22;6664;52.514;13.440;2023-05-27T04:57:55;9.60;28.30
13198;DHT22;6664;52.514;13.440;2023-05-27T05:00:41;9.60;28.10
13198;DHT22;6664;52.514;13.440;2023-05-27T05:03:33;9.70;28.00
13198;DHT22;6664;52.514;13.440;2023-05-27T05:06:26;9.70;27.80
13198;DHT22;6664;52.514;13.440;2023-05-27T05:09:14;9.80;27.70
13198;DHT22;6664;52.514;13.440;2023-05-27T05:12:00;9.80;27.60
13198;DHT22;6664;52.514;13.440;2023-05-27T05:14:48;9.90;27.10
13198;DHT22;6664;52.514;13.440;2023-05-27T05:17:34;10.00;26.30
13198;DHT22;6664;52.514;13.440;2023-05-27T05:20:20;10.00;26.00
13198;DHT22;6664;52.514;13.440;2023-05-27T05:23:07;10.10;25.90
13198;DHT22;6664;52.514;13.440;2023-05-27T05:25:53;10.10;25.20
13198;DHT22;6664;52.514;13.440;2023-05-27T05:28:46;10.20;25.30
13198;DHT22;6664;52.514;13.440;2023-05-27T05:31:31;10.20;25.30
13198;DHT22;6664;52.514;13.440;2023-05-27T05:34:17;10.20;25.00
13198;DHT22;6664;52.514;13.440;2023-05-27T05:37:05;10.30;24.80
13198;DHT22;6664;52.514;13.440;2023-05-27T05:39:53;10.30;24.50
13198;DHT22;6664;52.514;13.440;2023-05-27T05:42:39;10.40;24.30
13198;DHT22;6664;52.514;13.440;2023-05-27T05:45:24;10.60;23.80
13198;DHT22;6664;52.514;13.440;2023-05-27T05:48:10;10.70;23.40
13198;DHT22;6664;52.514;13.440;2023-05-27T05:50:56;10.60;23.20
13198;DHT22;6664;52.514;13.440;2023-05-27T05:53:45;10.70;22.70
13198;DHT22;6664;52.514;13.440;2023-05-27T05:56:32;10.80;22.10
13198;DHT22;6664;52.514;13.440;2023-05-27T05:59:18;10.90;21.60
13198;DHT22;6664;52.514;13.440;2023-05-27T06:02:04;11.00;21.30
13198;DHT22;6664;52.514;13.440;2023-05-27T06:04:51;11.10;20.50
13198;DHT22;6664;52.514;13.440;2023-05-27T06:07:36;11.30;18.80
13198;DHT22;6664;52.514;13.440;2023-05-27T06:10:22;11.40;18.20
13198;DHT22;6664;52.514;13.440;2023-05-27T06:13:07;11.50;17.10
13198;DHT22;6664;52.514;13.440;2023-05-27T06:15:56;11.60;15.40
13198;DHT22;6664;52.514;13.440;2023-05-27T06:18:41;11.50;15.40
13198;DHT22;6664;52.514;13.440;2023-05-27T06:21:31;11.60;14.20
13198;DHT22;6664;52.514;13.440;2023-05-27T06:24:18;11.80;12.10
13198;DHT22;6664;52.514;13.440;2023-05-27T06:27:04;11.90;11.40
13198;DHT22;6664;52.514;13.440;2023-05-27T06:29:53;11.90;10.60
13198;DHT22;6664;52.514;13.440;2023-05-27T06:32:39;12.00;9.80
13198;DHT22;6664;52.514;13.440;2023-05-27T06:35:24;12.10;10.10
13198;DHT22;6664;52.514;13.440;2023-05-27T06:38:10;12.20;8.30
13198;DHT22;6664;52.514;13.440;2023-05-27T06:40:55;12.30;6.90
13198;DHT22;6664;52.514;13.440;2023-05-27T06:43:43;12.30;6.70
13198;DHT22;6664;52.514;13.440;2023-05-27T06:46:29;12.30;5.40
13198;DHT22;6664;52.514;13.440;2023-05-27T06:49:17;12.40;5.50
13198;DHT22;6664;52.514;13.440;2023-05-27T06:52:06;12.40;6.00
13198;DHT22;6664;52.514;13.440;2023-05-27T06:54:58;12.60;5.60
13198;DHT22;6664;52.514;13.440;2023-05-27T06:57:44;12.50;5.30
13198;DHT22;6664;52.514;13.440;2023-05-27T07:00:29;12.60;3.60
13198;DHT22;6664;52.514;13.440;2023-05-27T07:03:17;12.60;3.50
13198;DHT22;6664;52.514;13.440;2023-05-27T07:06:07;12.80;3.90
13198;DHT22;6664;52.514;13.440;2023-05-27T07:08:53;12.80;3.70
13198;DHT22;6664;52.514;13.440;2023-05-27T07:11:40;12.80;2.70
13198;DHT22;6664;52.514;13.440;2023-05-27T07:14:25;13.10;2.80
13198;DHT22;6664;52.514;13.440;2023-05-27T07:17:11;13.00;2.80
13198;DHT22;6664;52.514;13.440;2023-05-27T07:20:00;13.00;2.40
13198;DHT22;6664;52.514;13.440;2023-05-27T07:22:45;13.00;1.80
13198;DHT22;6664;52.514;13.440;2023-05-27T07:25:31;13.00;1.90
13198;DHT22;6664;52.514;13.440;2023-05-27T07:28:17;13.20;1.30
13198;DHT22;6664;52.514;13.440;2023-05-27T07:31:03;13.20;1.20
13198;DHT22;6664;52.514;13.440;2023-05-27T07:33:49;13.10;1.20
13198;DHT22;6664;52.514;13.440;2023-05-27T07:36:34;13.10;1.00
13198;DHT22;6664;52.514;13.440;2023-05-27T07:39:23;13.10;1.00
13198;DHT22;6664;52.514;13.440;2023-05-27T07:42:10;13.20;1.00
13198;DHT22;6664;52.514;13.440;2023-05-27T07:44:57;13.20;1.00
13198;DHT22;6664;52.514;13.440;2023-05-27T07:47:43;13.40;1.00
13198;DHT22;6664;52.514;13.440;2023-05-27T07:50:31;13.40;1.00
13198;DHT22;6664;52.514;13.440;2023-05-27T07:53:19;13.50;1.00
13198;DHT22;6664;52.514;13.440;2023-05-27T07:56:07;13.60;1.00
13198;DHT22;6664;52.514;13.440;2023-05-27T07:58:53;13.70;1.00
13198;DHT22;6664;52.514;13.440;2023-05-27T08:01:38;13.60;1.00
13198;DHT22;6664;52.514;13.440;2023-05-27T08:04:24;13.70;1.00
13198;DHT22;6664;52.514;13.440;2023-05-27T08:07:10;13.70;1.00
13198;DHT22;6664;52.514;13.440;2023-05-27T08:09:56;13.60;1.00
13198;DHT22;6664;52.514;13.440;2023-05-27T08:12:41;13.70;1.00
13198;DHT22;6664;52.514;13.440;2023-05-27T08:15:27;13.80;1.00
13198;DHT22;6664;52.514;13.440;2023-05-27T08:18:13;13.80;1.00
13198;DHT22;6664;52.514;13.440;2023-05-27T08:20:59;14.00;1.00
13198;DHT22;6664;52.514;13.440;2023-05-27T08:23:46;14.00;1.00
13198;DHT22;6664;52.514;13.440;2023-05-27T08:26:32;14.00;1.00
13198;DHT22;6664;52.514;13.440;2023-05-27T08:29:17;14.00;1.00
13198;DHT22;6664;52.514;13.440;2023-05-27T08:32:08;14.00;1.00
13198;DHT22;6664;52.514;13.440;2023-05-27T08:34:57;14.30;1.00
13198;DHT22;6664;52.514;13.440;2023-05-27T08:37:44;14.30;1.00
13198;DHT22;6664;52.514;13.440;2023-05-27T08:40:31;14.20;1.00
13198;DHT22;6664;52.514;13.440;2023-05-27T08:43:17;14.30;1.00
13198;DHT22;6664;52.514;13.440;2023-05-27T08:46:02;14.20;1.00
13198;DHT22;6664;52.514;13.440;2023-05-27T08:48:50;14.30;1.00
13198;DHT22;6664;52.514;13.440;2023-05-27T08:51:38;14.60;1.00
13198;DHT22;6664;52.514;13.440;2023-05-27T08:54:28;14.70;1.00
13198;DHT22;6664;52.514;13.440;2023-05-27T08:57:17;14.70;1.00
13198;DHT22;6664;52.514;13.440;2023-05-27T09:00:05;14.90;1.00
13198;DHT22;6664;52.514;13.440;2023-05-27T09:02:57;14.80;1.00
13198;DHT22;6664;52.514;13.440;2023-05-27T09:05:45;14.90;1.00
13198;DHT22;6664;52.514;13.440;2023-05-27T09:08:31;14.80;1.00
13198;DHT22;6664;52.514;13.440;2023-05-27T09:11:41;15.00;1.00
13198;DHT22;6664;52.514;13.440;2023-05-27T09:14:28;15.00;1.00
13198;DHT22;6664;52.514;13.440;2023-05-27T09:17:14;15.00;1.00
13198;DHT22;6664;52.514;13.440;2023-05-27T09:20:01;15.30;1.00
13198;DHT22;6664;52.514;13.440;2023-05-27T09:22:46;15.50;1.00
13198;DHT22;6664;52.514;13.440;2023-05-27T09:25:32;15.40;1.00
13198;DHT22;6664;52.514;13.440;2023-05-27T09:28:22;15.50;1.00
13198;DHT22;6664;52.514;13.440;2023-05-27T09:31:08;15.60;1.00
13198;DHT22;6664;52.514;13.440;2023-05-27T09:33:57;15.80;1.00
13198;DHT22;6664;52.514;13.440;2023-05-27T09:36:47;15.70;1.00
13198;DHT22;6664;52.514;13.440;2023-05-27T09:39:35;15.70;1.00
13198;DHT22;6664;52.514;13.440;2023-05-27T09:42:26;15.80;1.00
13198;DHT22;6664;52.514;13.440;2023-05-27T09:45:19;15.90;1.00
13198;DHT22;6664;52.514;13.440;2023-05-27T09:48:06;16.00;1.00
13198;DHT22;6664;52.514;13.440;2023-05-27T09:50:54;16.00;1.00
13198;DHT22;6664;52.514;13.440;2023-05-27T09:53:41;16.10;1.00
13198;DHT22;6664;52.514;13.440;2023-05-27T09:56:29;16.20;1.00
13198;DHT22;6664;52.514;13.440;2023-05-27T09:59:15;16.30;1.00
13198;DHT22;6664;52.514;13.440;2023-05-27T10:02:04;16.40;1.00
13198;DHT22;6664;52.514;13.440;2023-05-27T10:04:53;16.40;1.00
13198;DHT22;6664;52.514;13.440;2023-05-27T10:07:44;16.50;1.00
13198;DHT22;6664;52.514;13.440;2023-05-27T10:10:50;16.60;1.00
13198;DHT22;6664;52.514;13.440;2023-05-27T10:13:36;16.80;1.00
13198;DHT22;6664;52.514;13.440;2023-05-27T10:16:26;17.00;1.00
13198;DHT22;6664;52.514;13.440;2023-05-27T10:19:12;17.10;1.00
13198;DHT22;6664;52.514;13.440;2023-05-27T10:22:10;17.20;1.00
13198;DHT22;6664;52.514;13.440;2023-05-27T10:25:10;17.20;1.00
13198;DHT22;6664;52.514;13.440;2023-05-27T10:27:58;17.30;1.00
13198;DHT22;6664;52.514;13.440;2023-05-27T10:30:45;17.40;1.00
13198;DHT22;6664;52.514;13.440;2023-05-27T10:33:44;17.60;1.00
13198;DHT22;6664;52.514;13.440;2023-05-27T10:36:31;17.60;1.00
13198;DHT22;6664;52.514;13.440;2023-05-27T10:39:18;17.70;1.00
13198;DHT22;6664;52.514;13.440;2023-05-27T10:42:04;17.80;1.00
13198;DHT22;6664;52.514;13.440;2023-05-27T10:45:05;17.80;1.00
13198;DHT22;6664;52.514;13.440;2023-05-27T10:47:54;17.90;1.00
13198;DHT22;6664;52.514;13.440;2023-05-27T10:50:50;18.00;1.00
13198;DHT22;6664;52.514;13.440;2023-05-27T10:53:39;18.10;1.00
13198;DHT22;6664;52.514;13.440;2023-05-27T10:56:28;18.10;1.00
13198;DHT22;6664;52.514;13.440;2023-05-27T10:59:19;18.20;1.00
13198;DHT22;6664;52.514;13.440;2023-05-27T11:02:07;18.30;1.00
13198;DHT22;6664;52.514;13.440;2023-05-27T11:04:52;18.30;1.00
13198;DHT22;6664;52.514;13.440;2023-05-27T11:07:39;18.50;1.00
13198;DHT22;6664;52.514;13.440;2023-05-27T11:10:27;18.70;1.00
13198;DHT22;6664;52.514;13.440;2023-05-27T11:13:13;18.80;1.00
13198;DHT22;6664;52.514;13.440;2023-05-27T11:16:00;18.90;1.00
13198;DHT22;6664;52.514;13.440;2023-05-27T11:18:50;19.00;1.00
13198;DHT22;6664;52.514;13.440;2023-05-27T11:21:44;19.30;1.00
13198;DHT22;6664;52.514;13.440;2023-05-27T11:24:30;19.50;1.00
13198;DHT22;6664;52.514;13.440;2023-05-27T11:27:16;19.60;1.00
13198;DHT22;6664;52.514;13.440;2023-05-27T11:30:08;19.70;1.00
13198;DHT22;6664;52.514;13.440;2023-05-27T11:33:01;19.70;1.00
13198;DHT22;6664;52.514;13.440;2023-05-27T11:35:48;19.60;1.00
13198;DHT22;6664;52.514;13.440;2023-05-27T11:38:53;19.30;1.00
13198;DHT22;6664;52.514;13.440;2023-05-27T11:41:50;19.30;1.00
13198;DHT22;6664;52.514;13.440;2023-05-27T11:44:38;19.50;1.00
13198;DHT22;6664;52.514;13.440;2023-05-27T11:47:24;19.70;1.00
13198;DHT22;6664;52.514;13.440;2023-05-27T11:50:16;19.90;1.00
13198;DHT22;6664;52.514;13.440;2023-05-27T11:53:03;20.20;1.00
13198;DHT22;6664;52.514;13.440;2023-05-27T11:55:48;20.40;1.00
13198;DHT22;6664;52.514;13.440;2023-05-27T11:58:36;20.50;1.00
13198;DHT22;6664;52.514;13.440;2023-05-27T12:01:22;20.60;1.00
13198;DHT22;6664;52.514;13.440;2023-05-27T12:04:08;20.70;1.00
13198;DHT22;6664;52.514;13.440;2023-05-27T12:06:54;20.80;1.00
13198;DHT22;6664;52.514;13.440;2023-05-27T12:09:40;21.00;1.00
13198;DHT22;6664;52.514;13.440;2023-05-27T12:12:26;21.00;1.00
13198;DHT22;6664;52.514;13.440;2023-05-27T12:15:11;21.30;1.00
13198;DHT22;6664;52.514;13.440;2023-05-27T12:17:59;22.10;1.00
13198;DHT22;6664;52.514;13.440;2023-05-27T12:20:45;22.60;1.00
13198;DHT22;6664;52.514;13.440;2023-05-27T12:23:31;23.70;1.00
13198;DHT22;6664;52.514;13.440;2023-05-27T12:26:17;24.60;1.00
13198;DHT22;6664;52.514;13.440;2023-05-27T12:29:03;26.00;1.00
13198;DHT22;6664;52.514;13.440;2023-05-27T12:31:51;32.40;1.00
13198;DHT22;6664;52.514;13.440;2023-05-27T12:34:39;36.70;1.00
13198;DHT22;6664;52.514;13.440;2023-05-27T12:37:25;37.40;1.00
13198;DHT22;6664;52.514;13.440;2023-05-27T12:40:12;39.60;1.00
13198;DHT22;6664;52.514;13.440;2023-05-27T12:43:00;39.80;1.00
13198;DHT22;6664;52.514;13.440;2023-05-27T12:45:51;41.30;1.00
13198;DHT22;6664;52.514;13.440;2023-05-27T12:48:38;39.10;1.00
13198;DHT22;6664;52.514;13.440;2023-05-27T12:51:28;43.00;1.00
13198;DHT22;6664;52.514;13.440;2023-05-27T12:54:15;45.00;1.00
13198;DHT22;6664;52.514;13.440;2023-05-27T12:57:01;44.60;1.00
13198;DHT22;6664;52.514;13.440;2023-05-27T12:59:50;45.40;1.00
13198;DHT22;6664;52.514;13.440;2023-05-27T13:02:36;48.90;1.00
13198;DHT22;6664;52.514;13.440;2023-05-27T13:05:24;51.10;1.00
13198;DHT22;6664;52.514;13.440;2023-05-27T13:08:12;52.80;1.00
13198;DHT22;6664;52.514;13.440;2023-05-27T13:10:58;54.40;1.00
13198;DHT22;6664;52.514;13.440;2023-05-27T13:13:47;54.10;1.00
13198;DHT22;6664;52.514;13.440;2023-05-27T13:16:33;54.20;1.00
13198;DHT22;6664;52.514;13.440;2023-05-27T13:19:18;55.10;1.00
13198;DHT22;6664;52.514;13.440;2023-05-27T13:22:04;55.60;1.00
13198;DHT22;6664;52.514;13.440;2023-05-27T13:24:50;55.90;1.00
13198;DHT22;6664;52.514;13.440;2023-05-27T13:27:35;55.10;1.00
13198;DHT22;6664;52.514;13.440;2023-05-27T13:30:21;56.10;1.00
13198;DHT22;6664;52.514;13.440;2023-05-27T13:33:09;54.90;1.00
13198;DHT22;6664;52.514;13.440;2023-05-27T13:35:57;53.30;1.00
13198;DHT22;6664;52.514;13.440;2023-05-27T13:38:43;55.00;1.00
13198;DHT22;6664;52.514;13.440;2023-05-27T13:41:28;55.90;1.00
13198;DHT22;6664;52.514;13.440;2023-05-27T13:44:15;54.50;1.00
13198;DHT22;6664;52.514;13.440;2023-05-27T13:47:01;54.80;1.00
13198;DHT22;6664;52.514;13.440;2023-05-27T13:49:49;54.00;1.00
13198;DHT22;6664;52.514;13.440;2023-05-27T13:52:34;52.60;1.00
13198;DHT22;6664;52.514;13.440;2023-05-27T13:55:23;52.90;1.00
13198;DHT22;6664;52.514;13.440;2023-05-27T13:58:09;53.00;1.00
13198;DHT22;6664;52.514;13.440;2023-05-27T14:00:54;54.20;1.00
13198;DHT22;6664;52.514;13.440;2023-05-27T14:03:40;54.70;1.00
13198;DHT22;6664;52.514;13.440;2023-05-27T14:06:26;51.00;1.00
13198;DHT22;6664;52.514;13.440;2023-05-27T14:09:12;51.90;1.00
13198;DHT22;6664;52.514;13.440;2023-05-27T14:11:57;51.90;1.00
13198;DHT22;6664;52.514;13.440;2023-05-27T14:14:43;52.50;1.00
13198;DHT22;6664;52.514;13.440;2023-05-27T14:17:28;51.10;1.00
13198;DHT22;6664;52.514;13.440;2023-05-27T14:20:14;51.00;1.00
13198;DHT22;6664;52.514;13.440;2023-05-27T14:23:00;50.00;1.00
13198;DHT22;6664;52.514;13.440;2023-05-27T14:25:47;50.90;1.00
13198;DHT22;6664;52.514;13.440;2023-05-27T14:28:32;50.60;1.00
13198;DHT22;6664;52.514;13.440;2023-05-27T14:31:18;50.80;1.00
13198;DHT22;6664;52.514;13.440;2023-05-27T14:34:04;50.50;1.00
13198;DHT22;6664;52.514;13.440;2023-05-27T14:36:50;48.60;1.00
13198;DHT22;6664;52.514;13.440;2023-05-27T14:39:36;45.50;1.00
13198;DHT22;6664;52.514;13.440;2023-05-27T14:42:22;46.60;1.00
13198;DHT22;6664;52.514;13.440;2023-05-27T14:45:10;43.90;1.00
13198;DHT22;6664;52.514;13.440;2023-05-27T14:47:56;41.70;1.00
13198;DHT22;6664;52.514;13.440;2023-05-27T14:50:42;41.10;1.00
13198;DHT22;6664;52.514;13.440;2023-05-27T14:53:28;38.10;1.00
13198;DHT22;6664;52.514;13.440;2023-05-27T14:56:17;35.50;1.00
13198;DHT22;6664;52.514;13.440;2023-05-27T14:59:03;35.10;1.00
13198;DHT22;6664;52.514;13.440;2023-05-27T15:01:49;34.80;1.00
13198;DHT22;6664;52.514;13.440;2023-05-27T15:04:34;32.10;1.00
13198;DHT22;6664;52.514;13.440;2023-05-27T15:07:20;30.60;1.00
13198;DHT22;6664;52.514;13.440;2023-05-27T15:10:08;29.70;1.00
13198;DHT22;6664;52.514;13.440;2023-05-27T15:12:53;28.80;1.00
13198;DHT22;6664;52.514;13.440;2023-05-27T15:15:39;28.00;1.00
13198;DHT22;6664;52.514;13.440;2023-05-27T15:18:27;27.10;1.00
13198;DHT22;6664;52.514;13.440;2023-05-27T15:21:13;27.10;1.00
13198;DHT22;6664;52.514;13.440;2023-05-27T15:24:01;27.40;1.00
13198;DHT22;6664;52.514;13.440;2023-05-27T15:26:46;26.60;1.00
13198;DHT22;6664;52.514;13.440;2023-05-27T15:29:35;26.00;1.00
13198;DHT22;6664;52.514;13.440;2023-05-27T15:32:21;26.10;1.00
13198;DHT22;6664;52.514;13.440;2023-05-27T15:35:09;26.20;1.00
13198;DHT22;6664;52.514;13.440;2023-05-27T15:37:58;27.30;1.00
13198;DHT22;6664;52.514;13.440;2023-05-27T15:40:45;26.40;1.00
13198;DHT22;6664;52.514;13.440;2023-05-27T15:43:32;26.90;1.00
13198;DHT22;6664;52.514;13.440;2023-05-27T15:46:20;27.00;1.00
13198;DHT22;6664;52.514;13.440;2023-05-27T15:49:06;27.40;1.00
13198;DHT22;6664;52.514;13.440;2023-05-27T15:51:52;27.90;1.00
13198;DHT22;6664;52.514;13.440;2023-05-27T15:54:39;27.90;1.00
13198;DHT22;6664;52.514;13.440;2023-05-27T15:57:27;27.50;1.00
13198;DHT22;6664;52.514;13.440;2023-05-27T16:00:13;26.60;1.00
13198;DHT22;6664;52.514;13.440;2023-05-27T16:02:59;25.70;1.00
13198;DHT22;6664;52.514;13.440;2023-05-27T16:05:45;25.20;1.00
13198;DHT22;6664;52.514;13.440;2023-05-27T16:08:33;24.80;1.00
13198;DHT22;6664;52.514;13.440;2023-05-27T16:11:20;24.20;1.00
13198;DHT22;6664;52.514;13.440;2023-05-27T16:14:06;24.10;1.00
13198;DHT22;6664;52.514;13.440;2023-05-27T16:16:51;23.60;1.00
13198;DHT22;6664;52.514;13.440;2023-05-27T16:19:40;23.40;1.00
13198;DHT22;6664;52.514;13.440;2023-05-27T16:22:25;23.10;1.00
13198;DHT22;6664;52.514;13.440;2023-05-27T16:25:11;23.00;1.00
13198;DHT22;6664;52.514;13.440;2023-05-27T16:27:57;22.70;1.00
13198;DHT22;6664;52.514;13.440;2023-05-27T16:30:45;22.60;1.00
13198;DHT22;6664;52.514;13.440;2023-05-27T16:33:30;22.50;1.00
13198;DHT22;6664;52.514;13.440;2023-05-27T16:36:15;22.40;1.00
13198;DHT22;6664;52.514;13.440;2023-05-27T16:39:01;22.30;1.00
13198;DHT22;6664;52.514;13.440;2023-05-27T16:41:47;22.20;1.00
13198;DHT22;6664;52.514;13.440;2023-05-27T16:44:33;22.20;1.00
13198;DHT22;6664;52.514;13.440;2023-05-27T16:47:19;22.00;1.00
13198;DHT22;6664;52.514;13.440;2023-05-27T16:50:08;21.80;1.00
13198;DHT22;6664;52.514;13.440;2023-05-27T16:52:56;21.80;1.00
13198;DHT22;6664;52.514;13.440;2023-05-27T16:55:42;21.70;1.00
13198;DHT22;6664;52.514;13.440;2023-05-27T16:58:30;21.50;1.00
13198;DHT22;6664;52.514;13.440;2023-05-27T17:01:15;21.40;1.00
13198;DHT22;6664;52.514;13.440;2023-05-27T17:04:02;21.30;1.00
13198;DHT22;6664;52.514;13.440;2023-05-27T17:06:50;21.30;1.00
13198;DHT22;6664;52.514;13.440;2023-05-27T17:09:36;21.80;1.00
13198;DHT22;6664;52.514;13.440;2023-05-27T17:12:21;21.60;1.00
13198;DHT22;6664;52.514;13.440;2023-05-27T17:15:10;22.10;1.00
13198;DHT22;6664;52.514;13.440;2023-05-27T17:17:56;21.60;1.00
13198;DHT22;6664;52.514;13.440;2023-05-27T17:20:42;21.30;1.00
13198;DHT22;6664;52.514;13.440;2023-05-27T17:23:28;21.10;1.00
13198;DHT22;6664;52.514;13.440;2023-05-27T17:26:13;20.90;1.00
13198;DHT22;6664;52.514;13.440;2023-05-27T17:29:00;20.70;1.00
13198;DHT22;6664;52.514;13.440;2023-05-27T17:31:46;20.60;1.00
13198;DHT22;6664;52.514;13.440;2023-05-27T17:34:36;20.40;1.00
13198;DHT22;6664;52.514;13.440;2023-05-27T17:37:24;20.30;1.00
13198;DHT22;6664;52.514;13.440;2023-05-27T17:40:10;20.20;1.00
13198;DHT22;6664;52.514;13.440;2023-05-27T17:42:56;20.20;1.00
13198;DHT22;6664;52.514;13.440;2023-05-27T17:45:42;20.10;1.00
13198;DHT22;6664;52.514;13.440;2023-05-27T17:48:30;20.00;1.00
13198;DHT22;6664;52.514;13.440;2023-05-27T17:51:16;19.90;1.00
13198;DHT22;6664;52.514;13.440;2023-05-27T17:54:01;19.80;1.00
13198;DHT22;6664;52.514;13.440;2023-05-27T17:56:47;19.70;1.00
13198;DHT22;6664;52.514;13.440;2023-05-27T17:59:35;19.60;1.00